sensor_id;sensor_type;location;lat;lon;timestamp;P1;durP1;ratioP1;P2;durP2;ratioP2
28003;SDS011;15330;51.234;6.754;2023-02-11T00:00:22;53.95;;;27.52;;
28003;SDS011;15330;51.234;6.754;2023-02-11T00:02:48;52.28;;;27.77;;
28003;SDS011;15330;51.234;6.754;2023-02-11T00:05:13;52.42;;;26.75;;
28003;SDS011;15330;51.234;6.754;2023-02-11T00:07:39;50.42;;;27.42;;
28003;SDS011;15330;51.234;6.754;2023-02-11T00:10:04;56.35;;;27.98;;
28003;SDS011;15330;51.234;6.754;2023-02-11T00:12:33;48.25;;;25.77;;
28003;SDS011;15330;51.234;6.754;2023-02-11T00:14:59;49.25;;;26.25;;
28003;SDS011;15330;51.234;6.754;2023-02-11T00:17:25;53.40;;;27.67;;
28003;SDS011;15330;51.234;6.754;2023-02-11T00:19:50;50.97;;;26.00;;
28003;SDS011;15330;51.234;6.754;2023-02-11T00:22:16;52.13;;;27.45;;
28003;SDS011;15330;51.234;6.754;2023-02-11T00:24:42;53.30;;;27.17;;
28003;SDS011;15330;51.234;6.754;2023-02-11T00:27:07;54.50;;;27.10;;
28003;SDS011;15330;51.234;6.754;2023-02-11T00:29:32;52.70;;;26.58;;
28003;SDS011;15330;51.234;6.754;2023-02-11T00:31:58;52.25;;;26.98;;
28003;SDS011;15330;51.234;6.754;2023-02-11T00:34:29;50.50;;;26.65;;
28003;SDS011;15330;51.234;6.754;2023-02-11T00:36:57;56.28;;;27.77;;
28003;SDS011;15330;51.234;6.754;2023-02-11T00:39:23;50.17;;;27.33;;
28003;SDS011;15330;51.234;6.754;2023-02-11T00:41:49;52.50;;;26.45;;
28003;SDS011;15330;51.234;6.754;2023-02-11T00:44:14;47.28;;;27.90;;
28003;SDS011;15330;51.234;6.754;2023-02-11T00:46:40;49.97;;;27.60;;
28003;SDS011;15330;51.234;6.754;2023-02-11T00:49:05;53.72;;;28.27;;
28003;SDS011;15330;51.234;6.754;2023-02-11T00:51:30;52.38;;;28.98;;
28003;SDS011;15330;51.234;6.754;2023-02-11T00:53:56;48.85;;;27.42;;
28003;SDS011;15330;51.234;6.754;2023-02-11T00:56:21;54.90;;;27.65;;
28003;SDS011;15330;51.234;6.754;2023-02-11T00:58:47;53.85;;;28.20;;
28003;SDS011;15330;51.234;6.754;2023-02-11T01:01:12;51.85;;;28.00;;
28003;SDS011;15330;51.234;6.754;2023-02-11T01:03:38;55.53;;;28.15;;
28003;SDS011;15330;51.234;6.754;2023-02-11T01:06:04;51.42;;;28.52;;
28003;SDS011;15330;51.234;6.754;2023-02-11T01:08:31;48.72;;;26.73;;
28003;SDS011;15330;51.234;6.754;2023-02-11T01:10:58;56.83;;;28.35;;
28003;SDS011;15330;51.234;6.754;2023-02-11T01:13:25;54.17;;;27.23;;
28003;SDS011;15330;51.234;6.754;2023-02-11T01:15:51;55.80;;;28.35;;
28003;SDS011;15330;51.234;6.754;2023-02-11T01:18:17;58.03;;;29.75;;
28003;SDS011;15330;51.234;6.754;2023-02-11T01:20:43;54.72;;;28.13;;
28003;SDS011;15330;51.234;6.754;2023-02-11T01:23:08;49.08;;;27.67;;
28003;SDS011;15330;51.234;6.754;2023-02-11T01:25:33;52.83;;;27.60;;
28003;SDS011;15330;51.234;6.754;2023-02-11T01:27:59;51.58;;;28.13;;
28003;SDS011;15330;51.234;6.754;2023-02-11T01:30:24;52.13;;;28.23;;
28003;SDS011;15330;51.234;6.754;2023-02-11T01:32:50;54.05;;;27.17;;
28003;SDS011;15330;51.234;6.754;2023-02-11T01:35:15;56.03;;;29.63;;
28003;SDS011;15330;51.234;6.754;2023-02-11T01:37:40;57.20;;;28.48;;
28003;SDS011;15330;51.234;6.754;2023-02-11T01:40:09;53.40;;;28.35;;
28003;SDS011;15330;51.234;6.754;2023-02-11T01:42:38;56.85;;;28.27;;
28003;SDS011;15330;51.234;6.754;2023-02-11T01:48:12;53.38;;;27.83;;
28003;SDS011;15330;51.234;6.754;2023-02-11T01:51:15;51.33;;;27.75;;
28003;SDS011;15330;51.234;6.754;2023-02-11T01:53:45;48.85;;;27.77;;
28003;SDS011;15330;51.234;6.754;2023-02-11T01:56:30;52.72;;;27.92;;
28003;SDS011;15330;51.234;6.754;2023-02-11T01:59:19;50.53;;;27.75;;
28003;SDS011;15330;51.234;6.754;2023-02-11T02:01:50;52.58;;;28.17;;
28003;SDS011;15330;51.234;6.754;2023-02-11T02:04:21;50.72;;;26.48;;
28003;SDS011;15330;51.234;6.754;2023-02-11T02:06:53;58.42;;;28.35;;
28003;SDS011;15330;51.234;6.754;2023-02-11T02:09:27;55.47;;;28.85;;
28003;SDS011;15330;51.234;6.754;2023-02-11T02:11:58;51.05;;;27.40;;
28003;SDS011;15330;51.234;6.754;2023-02-11T02:14:24;56.28;;;27.42;;
28003;SDS011;15330;51.234;6.754;2023-02-11T02:16:50;52.67;;;27.50;;
28003;SDS011;15330;51.234;6.754;2023-02-11T02:19:39;49.60;;;27.15;;
28003;SDS011;15330;51.234;6.754;2023-02-11T02:35:56;51.20;;;26.20;;
28003;SDS011;15330;51.234;6.754;2023-02-11T02:38:32;51.22;;;25.30;;
28003;SDS011;15330;51.234;6.754;2023-02-11T02:41:00;55.53;;;26.35;;
28003;SDS011;15330;51.234;6.754;2023-02-11T02:43:27;51.33;;;26.20;;
28003;SDS011;15330;51.234;6.754;2023-02-11T02:45:54;50.03;;;26.00;;
28003;SDS011;15330;51.234;6.754;2023-02-11T02:48:26;46.35;;;26.23;;
28003;SDS011;15330;51.234;6.754;2023-02-11T02:51:07;55.58;;;26.73;;
28003;SDS011;15330;51.234;6.754;2023-02-11T02:53:46;52.05;;;25.88;;
28003;SDS011;15330;51.234;6.754;2023-02-11T02:56:29;53.78;;;27.27;;
28003;SDS011;15330;51.234;6.754;2023-02-11T03:04:22;56.70;;;26.98;;
28003;SDS011;15330;51.234;6.754;2023-02-11T03:06:54;51.80;;;27.13;;
28003;SDS011;15330;51.234;6.754;2023-02-11T03:09:31;47.58;;;25.02;;
28003;SDS011;15330;51.234;6.754;2023-02-11T03:12:06;50.58;;;25.83;;
28003;SDS011;15330;51.234;6.754;2023-02-11T03:14:35;53.92;;;26.05;;
28003;SDS011;15330;51.234;6.754;2023-02-11T03:17:03;50.10;;;25.73;;
28003;SDS011;15330;51.234;6.754;2023-02-11T03:19:32;52.20;;;25.85;;
28003;SDS011;15330;51.234;6.754;2023-02-11T03:22:02;50.25;;;26.73;;
28003;SDS011;15330;51.234;6.754;2023-02-11T03:24:35;49.00;;;25.73;;
28003;SDS011;15330;51.234;6.754;2023-02-11T03:27:05;49.67;;;25.42;;
28003;SDS011;15330;51.234;6.754;2023-02-11T03:32:13;50.13;;;26.00;;
28003;SDS011;15330;51.234;6.754;2023-02-11T03:34:56;49.30;;;25.40;;
28003;SDS011;15330;51.234;6.754;2023-02-11T03:37:24;55.97;;;27.52;;
28003;SDS011;15330;51.234;6.754;2023-02-11T03:40:07;49.38;;;24.77;;
28003;SDS011;15330;51.234;6.754;2023-02-11T03:42:37;51.15;;;25.17;;
28003;SDS011;15330;51.234;6.754;2023-02-11T03:45:08;54.65;;;25.80;;
28003;SDS011;15330;51.234;6.754;2023-02-11T03:47:37;50.55;;;26.45;;
28003;SDS011;15330;51.234;6.754;2023-02-11T03:50:06;48.33;;;25.13;;
28003;SDS011;15330;51.234;6.754;2023-02-11T03:52:36;55.40;;;25.65;;
28003;SDS011;15330;51.234;6.754;2023-02-11T03:55:02;60.22;;;26.63;;
28003;SDS011;15330;51.234;6.754;2023-02-11T03:57:33;49.78;;;24.00;;
28003;SDS011;15330;51.234;6.754;2023-02-11T03:59:59;48.05;;;25.67;;
28003;SDS011;15330;51.234;6.754;2023-02-11T04:02:28;50.88;;;25.70;;
28003;SDS011;15330;51.234;6.754;2023-02-11T04:04:57;50.75;;;26.90;;
28003;SDS011;15330;51.234;6.754;2023-02-11T04:07:22;54.28;;;26.30;;
28003;SDS011;15330;51.234;6.754;2023-02-11T04:09:48;52.35;;;25.73;;
28003;SDS011;15330;51.234;6.754;2023-02-11T04:12:13;58.45;;;26.52;;
28003;SDS011;15330;51.234;6.754;2023-02-11T04:14:39;53.78;;;26.08;;
28003;SDS011;15330;51.234;6.754;2023-02-11T04:17:04;58.20;;;26.38;;
28003;SDS011;15330;51.234;6.754;2023-02-11T04:19:30;50.97;;;25.70;;
28003;SDS011;15330;51.234;6.754;2023-02-11T04:21:56;50.88;;;25.02;;
28003;SDS011;15330;51.234;6.754;2023-02-11T04:24:21;61.42;;;27.10;;
28003;SDS011;15330;51.234;6.754;2023-02-11T04:26:47;48.60;;;25.05;;
28003;SDS011;15330;51.234;6.754;2023-02-11T04:29:12;48.53;;;25.30;;
28003;SDS011;15330;51.234;6.754;2023-02-11T04:31:38;50.75;;;24.92;;
28003;SDS011;15330;51.234;6.754;2023-02-11T04:34:03;52.20;;;26.75;;
28003;SDS011;15330;51.234;6.754;2023-02-11T04:36:29;63.40;;;27.60;;
28003;SDS011;15330;51.234;6.754;2023-02-11T04:38:54;49.65;;;23.33;;
28003;SDS011;15330;51.234;6.754;2023-02-11T04:41:19;60.70;;;28.67;;
28003;SDS011;15330;51.234;6.754;2023-02-11T04:43:45;59.42;;;28.20;;
28003;SDS011;15330;51.234;6.754;2023-02-11T04:46:10;61.80;;;28.13;;
28003;SDS011;15330;51.234;6.754;2023-02-11T04:48:36;66.95;;;29.42;;
28003;SDS011;15330;51.234;6.754;2023-02-11T04:51:01;55.28;;;27.45;;
28003;SDS011;15330;51.234;6.754;2023-02-11T04:53:27;60.00;;;26.70;;
28003;SDS011;15330;51.234;6.754;2023-02-11T04:55:52;58.97;;;26.77;;
28003;SDS011;15330;51.234;6.754;2023-02-11T04:58:18;71.93;;;32.38;;
28003;SDS011;15330;51.234;6.754;2023-02-11T05:00:44;54.35;;;26.15;;
28003;SDS011;15330;51.234;6.754;2023-02-11T05:03:10;63.30;;;27.25;;
28003;SDS011;15330;51.234;6.754;2023-02-11T05:05:39;60.15;;;27.35;;
28003;SDS011;15330;51.234;6.754;2023-02-11T05:08:06;67.55;;;30.73;;
28003;SDS011;15330;51.234;6.754;2023-02-11T05:10:33;81.32;;;36.00;;
28003;SDS011;15330;51.234;6.754;2023-02-11T05:12:58;68.38;;;29.85;;
28003;SDS011;15330;51.234;6.754;2023-02-11T05:15:24;69.88;;;29.33;;
28003;SDS011;15330;51.234;6.754;2023-02-11T05:17:50;69.35;;;28.40;;
28003;SDS011;15330;51.234;6.754;2023-02-11T05:20:15;69.65;;;28.10;;
28003;SDS011;15330;51.234;6.754;2023-02-11T05:22:41;59.65;;;30.55;;
28003;SDS011;15330;51.234;6.754;2023-02-11T05:25:06;65.43;;;27.67;;
28003;SDS011;15330;51.234;6.754;2023-02-11T05:27:32;63.65;;;30.05;;
28003;SDS011;15330;51.234;6.754;2023-02-11T05:29:57;60.92;;;28.52;;
28003;SDS011;15330;51.234;6.754;2023-02-11T05:32:23;69.00;;;29.90;;
28003;SDS011;15330;51.234;6.754;2023-02-11T05:34:48;56.05;;;28.08;;
28003;SDS011;15330;51.234;6.754;2023-02-11T05:37:13;65.78;;;30.52;;
28003;SDS011;15330;51.234;6.754;2023-02-11T05:39:39;73.85;;;30.35;;
28003;SDS011;15330;51.234;6.754;2023-02-11T05:42:04;66.57;;;32.30;;
28003;SDS011;15330;51.234;6.754;2023-02-11T05:44:30;79.22;;;34.17;;
28003;SDS011;15330;51.234;6.754;2023-02-11T05:46:55;77.60;;;32.60;;
28003;SDS011;15330;51.234;6.754;2023-02-11T05:49:21;60.60;;;30.42;;
28003;SDS011;15330;51.234;6.754;2023-02-11T05:51:46;64.43;;;31.08;;
28003;SDS011;15330;51.234;6.754;2023-02-11T05:54:12;82.10;;;30.63;;
28003;SDS011;15330;51.234;6.754;2023-02-11T05:56:37;66.65;;;30.80;;
28003;SDS011;15330;51.234;6.754;2023-02-11T05:59:03;71.22;;;31.45;;
28003;SDS011;15330;51.234;6.754;2023-02-11T06:01:28;65.28;;;30.65;;
28003;SDS011;15330;51.234;6.754;2023-02-11T06:03:53;83.50;;;36.53;;
28003;SDS011;15330;51.234;6.754;2023-02-11T06:06:19;75.60;;;31.63;;
28003;SDS011;15330;51.234;6.754;2023-02-11T06:08:45;64.68;;;30.60;;
28003;SDS011;15330;51.234;6.754;2023-02-11T06:11:10;69.72;;;30.85;;
28003;SDS011;15330;51.234;6.754;2023-02-11T06:13:38;107.63;;;46.20;;
28003;SDS011;15330;51.234;6.754;2023-02-11T06:16:03;70.85;;;32.22;;
28003;SDS011;15330;51.234;6.754;2023-02-11T06:18:29;85.80;;;40.28;;
28003;SDS011;15330;51.234;6.754;2023-02-11T06:20:54;66.63;;;30.98;;
28003;SDS011;15330;51.234;6.754;2023-02-11T06:23:20;70.45;;;30.77;;
28003;SDS011;15330;51.234;6.754;2023-02-11T06:25:46;102.85;;;40.60;;
28003;SDS011;15330;51.234;6.754;2023-02-11T06:28:11;85.38;;;34.25;;
28003;SDS011;15330;51.234;6.754;2023-02-11T06:30:37;72.32;;;33.13;;
28003;SDS011;15330;51.234;6.754;2023-02-11T06:33:02;75.03;;;33.10;;
28003;SDS011;15330;51.234;6.754;2023-02-11T06:35:28;72.05;;;33.80;;
28003;SDS011;15330;51.234;6.754;2023-02-11T06:37:54;80.63;;;37.30;;
28003;SDS011;15330;51.234;6.754;2023-02-11T06:40:20;98.68;;;43.75;;
28003;SDS011;15330;51.234;6.754;2023-02-11T06:42:45;93.05;;;41.65;;
28003;SDS011;15330;51.234;6.754;2023-02-11T06:45:11;81.95;;;35.63;;
28003;SDS011;15330;51.234;6.754;2023-02-11T06:47:37;72.53;;;30.98;;
28003;SDS011;15330;51.234;6.754;2023-02-11T06:50:06;81.28;;;34.50;;
28003;SDS011;15330;51.234;6.754;2023-02-11T06:52:33;63.75;;;28.60;;
28003;SDS011;15330;51.234;6.754;2023-02-11T06:54:58;85.45;;;35.63;;
28003;SDS011;15330;51.234;6.754;2023-02-11T06:57:24;83.45;;;36.22;;
28003;SDS011;15330;51.234;6.754;2023-02-11T06:59:49;93.80;;;39.17;;
28003;SDS011;15330;51.234;6.754;2023-02-11T07:02:15;73.68;;;30.30;;
28003;SDS011;15330;51.234;6.754;2023-02-11T07:04:41;72.97;;;30.55;;
28003;SDS011;15330;51.234;6.754;2023-02-11T07:07:06;60.83;;;28.27;;
28003;SDS011;15330;51.234;6.754;2023-02-11T07:09:31;65.05;;;27.90;;
28003;SDS011;15330;51.234;6.754;2023-02-11T07:11:57;79.80;;;31.40;;
28003;SDS011;15330;51.234;6.754;2023-02-11T07:14:22;74.05;;;30.70;;
28003;SDS011;15330;51.234;6.754;2023-02-11T07:16:47;75.88;;;30.95;;
28003;SDS011;15330;51.234;6.754;2023-02-11T07:19:13;113.05;;;47.55;;
28003;SDS011;15330;51.234;6.754;2023-02-11T07:21:38;94.38;;;38.90;;
28003;SDS011;15330;51.234;6.754;2023-02-11T07:24:07;102.75;;;44.33;;
28003;SDS011;15330;51.234;6.754;2023-02-11T07:26:34;90.65;;;38.30;;
28003;SDS011;15330;51.234;6.754;2023-02-11T07:28:59;75.10;;;30.23;;
28003;SDS011;15330;51.234;6.754;2023-02-11T07:31:25;80.72;;;30.95;;
28003;SDS011;15330;51.234;6.754;2023-02-11T07:33:52;82.97;;;31.52;;
28003;SDS011;15330;51.234;6.754;2023-02-11T07:36:21;69.70;;;30.75;;
28003;SDS011;15330;51.234;6.754;2023-02-11T07:38:47;76.57;;;31.25;;
28003;SDS011;15330;51.234;6.754;2023-02-11T07:41:14;71.82;;;31.10;;
28003;SDS011;15330;51.234;6.754;2023-02-11T07:43:42;72.25;;;29.15;;
28003;SDS011;15330;51.234;6.754;2023-02-11T07:46:09;76.82;;;32.05;;
28003;SDS011;15330;51.234;6.754;2023-02-11T07:48:36;69.28;;;30.83;;
28003;SDS011;15330;51.234;6.754;2023-02-11T07:51:09;65.32;;;29.08;;
28003;SDS011;15330;51.234;6.754;2023-02-11T07:53:39;73.85;;;29.88;;
28003;SDS011;15330;51.234;6.754;2023-02-11T07:56:05;80.38;;;30.98;;
28003;SDS011;15330;51.234;6.754;2023-02-11T07:58:31;85.70;;;33.83;;
28003;SDS011;15330;51.234;6.754;2023-02-11T08:01:04;74.65;;;29.63;;
28003;SDS011;15330;51.234;6.754;2023-02-11T08:03:32;76.65;;;32.08;;
28003;SDS011;15330;51.234;6.754;2023-02-11T08:06:01;75.28;;;30.38;;
28003;SDS011;15330;51.234;6.754;2023-02-11T08:08:31;72.47;;;29.47;;
28003;SDS011;15330;51.234;6.754;2023-02-11T08:10:56;75.18;;;31.50;;
28003;SDS011;15330;51.234;6.754;2023-02-11T08:13:22;73.32;;;28.60;;
28003;SDS011;15330;51.234;6.754;2023-02-11T08:15:47;73.80;;;33.13;;
28003;SDS011;15330;51.234;6.754;2023-02-11T08:18:13;84.72;;;34.83;;
28003;SDS011;15330;51.234;6.754;2023-02-11T08:20:38;88.20;;;33.47;;
28003;SDS011;15330;51.234;6.754;2023-02-11T08:23:07;92.85;;;36.70;;
28003;SDS011;15330;51.234;6.754;2023-02-11T08:25:32;81.72;;;31.60;;
28003;SDS011;15330;51.234;6.754;2023-02-11T08:27:57;78.93;;;32.10;;
28003;SDS011;15330;51.234;6.754;2023-02-11T08:30:23;76.32;;;32.35;;
28003;SDS011;15330;51.234;6.754;2023-02-11T08:32:49;93.57;;;33.03;;
28003;SDS011;15330;51.234;6.754;2023-02-11T08:35:14;92.15;;;32.78;;
28003;SDS011;15330;51.234;6.754;2023-02-11T08:37:40;72.72;;;30.58;;
28003;SDS011;15330;51.234;6.754;2023-02-11T08:40:05;78.15;;;35.17;;
28003;SDS011;15330;51.234;6.754;2023-02-11T08:42:31;79.20;;;33.70;;
28003;SDS011;15330;51.234;6.754;2023-02-11T08:44:56;81.65;;;34.42;;
28003;SDS011;15330;51.234;6.754;2023-02-11T08:47:22;86.97;;;35.58;;
28003;SDS011;15330;51.234;6.754;2023-02-11T08:49:47;78.70;;;34.92;;
28003;SDS011;15330;51.234;6.754;2023-02-11T08:52:13;83.85;;;33.33;;
28003;SDS011;15330;51.234;6.754;2023-02-11T08:54:39;92.53;;;33.88;;
28003;SDS011;15330;51.234;6.754;2023-02-11T08:57:04;77.15;;;32.00;;
28003;SDS011;15330;51.234;6.754;2023-02-11T08:59:29;90.53;;;34.63;;
28003;SDS011;15330;51.234;6.754;2023-02-11T09:01:55;88.35;;;34.28;;
28003;SDS011;15330;51.234;6.754;2023-02-11T09:04:21;71.70;;;29.75;;
28003;SDS011;15330;51.234;6.754;2023-02-11T09:06:46;83.10;;;34.28;;
28003;SDS011;15330;51.234;6.754;2023-02-11T09:09:12;80.18;;;31.60;;
28003;SDS011;15330;51.234;6.754;2023-02-11T09:11:39;84.93;;;33.28;;
28003;SDS011;15330;51.234;6.754;2023-02-11T09:14:06;77.97;;;33.92;;
28003;SDS011;15330;51.234;6.754;2023-02-11T09:16:32;91.75;;;33.63;;
28003;SDS011;15330;51.234;6.754;2023-02-11T09:19:00;86.70;;;34.92;;
28003;SDS011;15330;51.234;6.754;2023-02-11T09:21:27;90.97;;;33.95;;
28003;SDS011;15330;51.234;6.754;2023-02-11T09:23:53;94.40;;;35.13;;
28003;SDS011;15330;51.234;6.754;2023-02-11T09:26:30;89.18;;;33.13;;
28003;SDS011;15330;51.234;6.754;2023-02-11T09:28:57;77.00;;;34.00;;
28003;SDS011;15330;51.234;6.754;2023-02-11T09:31:23;82.53;;;32.92;;
28003;SDS011;15330;51.234;6.754;2023-02-11T09:33:52;91.15;;;34.55;;
28003;SDS011;15330;51.234;6.754;2023-02-11T09:36:20;92.65;;;36.90;;
28003;SDS011;15330;51.234;6.754;2023-02-11T09:38:48;85.07;;;33.25;;
28003;SDS011;15330;51.234;6.754;2023-02-11T09:41:30;91.25;;;35.35;;
28003;SDS011;15330;51.234;6.754;2023-02-11T09:44:03;94.15;;;36.40;;
28003;SDS011;15330;51.234;6.754;2023-02-11T09:46:34;76.95;;;33.60;;
28003;SDS011;15330;51.234;6.754;2023-02-11T09:49:03;84.03;;;37.63;;
28003;SDS011;15330;51.234;6.754;2023-02-11T09:54:00;99.82;;;37.45;;
28003;SDS011;15330;51.234;6.754;2023-02-11T09:56:31;83.82;;;33.38;;
28003;SDS011;15330;51.234;6.754;2023-02-11T09:58:56;90.28;;;34.65;;
28003;SDS011;15330;51.234;6.754;2023-02-11T10:01:38;86.90;;;33.83;;
28003;SDS011;15330;51.234;6.754;2023-02-11T10:07:06;77.07;;;33.67;;
28003;SDS011;15330;51.234;6.754;2023-02-11T10:10:20;90.85;;;34.78;;
28003;SDS011;15330;51.234;6.754;2023-02-11T10:21:05;86.18;;;34.40;;
28003;SDS011;15330;51.234;6.754;2023-02-11T10:23:43;87.97;;;37.60;;
28003;SDS011;15330;51.234;6.754;2023-02-11T10:26:13;87.88;;;36.40;;
28003;SDS011;15330;51.234;6.754;2023-02-11T10:28:43;78.38;;;33.78;;
28003;SDS011;15330;51.234;6.754;2023-02-11T10:31:24;82.72;;;35.10;;
28003;SDS011;15330;51.234;6.754;2023-02-11T10:36:25;91.13;;;36.37;;
28003;SDS011;15330;51.234;6.754;2023-02-11T10:38:53;85.57;;;36.40;;
28003;SDS011;15330;51.234;6.754;2023-02-11T10:41:25;89.75;;;39.58;;
28003;SDS011;15330;51.234;6.754;2023-02-11T10:43:55;86.07;;;35.33;;
28003;SDS011;15330;51.234;6.754;2023-02-11T10:46:21;91.00;;;35.88;;
28003;SDS011;15330;51.234;6.754;2023-02-11T10:48:51;89.95;;;35.72;;
28003;SDS011;15330;51.234;6.754;2023-02-11T10:53:47;95.07;;;37.15;;
28003;SDS011;15330;51.234;6.754;2023-02-11T10:56:21;91.82;;;37.90;;
28003;SDS011;15330;51.234;6.754;2023-02-11T10:58:54;85.38;;;36.08;;
28003;SDS011;15330;51.234;6.754;2023-02-11T11:06:53;99.20;;;38.38;;
28003;SDS011;15330;51.234;6.754;2023-02-11T11:09:29;107.25;;;40.45;;
28003;SDS011;15330;51.234;6.754;2023-02-11T11:12:15;98.88;;;39.05;;
28003;SDS011;15330;51.234;6.754;2023-02-11T11:14:59;83.55;;;34.10;;
28003;SDS011;15330;51.234;6.754;2023-02-11T11:17:27;80.90;;;32.83;;
28003;SDS011;15330;51.234;6.754;2023-02-11T11:20:08;78.68;;;33.47;;
28003;SDS011;15330;51.234;6.754;2023-02-11T11:22:37;84.85;;;34.53;;
28003;SDS011;15330;51.234;6.754;2023-02-11T11:25:04;91.45;;;37.17;;
28003;SDS011;15330;51.234;6.754;2023-02-11T11:27:29;91.15;;;38.65;;
28003;SDS011;15330;51.234;6.754;2023-02-11T11:29:55;92.22;;;38.80;;
28003;SDS011;15330;51.234;6.754;2023-02-11T11:32:21;92.70;;;39.58;;
28003;SDS011;15330;51.234;6.754;2023-02-11T11:34:58;89.38;;;37.22;;
28003;SDS011;15330;51.234;6.754;2023-02-11T11:37:30;86.65;;;34.67;;
28003;SDS011;15330;51.234;6.754;2023-02-11T11:39:58;93.03;;;38.85;;
28003;SDS011;15330;51.234;6.754;2023-02-11T11:42:32;94.50;;;39.35;;
28003;SDS011;15330;51.234;6.754;2023-02-11T11:45:02;96.55;;;38.92;;
28003;SDS011;15330;51.234;6.754;2023-02-11T11:47:33;97.55;;;39.55;;
28003;SDS011;15330;51.234;6.754;2023-02-11T11:50:11;104.47;;;40.13;;
28003;SDS011;15330;51.234;6.754;2023-02-11T11:55:19;111.95;;;42.75;;
28003;SDS011;15330;51.234;6.754;2023-02-11T11:57:48;104.63;;;41.97;;
28003;SDS011;15330;51.234;6.754;2023-02-11T12:00:16;104.47;;;40.35;;
28003;SDS011;15330;51.234;6.754;2023-02-11T12:05:36;99.20;;;38.80;;
28003;SDS011;15330;51.234;6.754;2023-02-11T12:11:02;113.95;;;42.25;;
28003;SDS011;15330;51.234;6.754;2023-02-11T12:16:52;112.78;;;41.05;;
28003;SDS011;15330;51.234;6.754;2023-02-11T12:19:27;116.40;;;43.20;;
28003;SDS011;15330;51.234;6.754;2023-02-11T12:32:50;103.82;;;40.70;;
28003;SDS011;15330;51.234;6.754;2023-02-11T12:38:57;103.28;;;38.63;;
28003;SDS011;15330;51.234;6.754;2023-02-11T12:53:10;103.07;;;40.65;;
28003;SDS011;15330;51.234;6.754;2023-02-11T12:56:04;103.20;;;40.10;;
28003;SDS011;15330;51.234;6.754;2023-02-11T12:58:36;108.55;;;39.50;;
28003;SDS011;15330;51.234;6.754;2023-02-11T13:01:04;99.10;;;42.72;;
28003;SDS011;15330;51.234;6.754;2023-02-11T13:06:33;102.30;;;41.85;;
28003;SDS011;15330;51.234;6.754;2023-02-11T13:09:04;105.55;;;41.50;;
28003;SDS011;15330;51.234;6.754;2023-02-11T13:11:39;106.40;;;39.58;;
28003;SDS011;15330;51.234;6.754;2023-02-11T13:14:20;100.25;;;40.53;;
28003;SDS011;15330;51.234;6.754;2023-02-11T13:16:50;107.18;;;40.65;;
28003;SDS011;15330;51.234;6.754;2023-02-11T13:19:20;99.55;;;40.83;;
28003;SDS011;15330;51.234;6.754;2023-02-11T13:37:51;97.20;;;41.20;;
28003;SDS011;15330;51.234;6.754;2023-02-11T13:42:53;101.88;;;41.75;;
28003;SDS011;15330;51.234;6.754;2023-02-11T13:47:53;102.78;;;41.83;;
28003;SDS011;15330;51.234;6.754;2023-02-11T13:50:25;104.70;;;43.47;;
28003;SDS011;15330;51.234;6.754;2023-02-11T13:52:58;97.90;;;39.47;;
28003;SDS011;15330;51.234;6.754;2023-02-11T13:55:27;100.38;;;41.58;;
28003;SDS011;15330;51.234;6.754;2023-02-11T14:08:59;87.57;;;37.72;;
28003;SDS011;15330;51.234;6.754;2023-02-11T14:17:42;88.88;;;38.30;;
28003;SDS011;15330;51.234;6.754;2023-02-11T14:20:31;88.45;;;38.42;;
28003;SDS011;15330;51.234;6.754;2023-02-11T14:22:59;85.00;;;36.85;;
28003;SDS011;15330;51.234;6.754;2023-02-11T14:25:25;83.68;;;37.28;;
28003;SDS011;15330;51.234;6.754;2023-02-11T14:44:26;86.32;;;36.10;;
28003;SDS011;15330;51.234;6.754;2023-02-11T14:46:53;83.70;;;37.72;;
28003;SDS011;15330;51.234;6.754;2023-02-11T14:51:54;85.70;;;38.22;;
28003;SDS011;15330;51.234;6.754;2023-02-11T14:54:41;89.53;;;38.97;;
28003;SDS011;15330;51.234;6.754;2023-02-11T14:57:15;84.30;;;37.67;;
28003;SDS011;15330;51.234;6.754;2023-02-11T15:02:42;114.72;;;41.50;;
28003;SDS011;15330;51.234;6.754;2023-02-11T15:05:21;107.90;;;41.25;;
28003;SDS011;15330;51.234;6.754;2023-02-11T15:10:33;99.47;;;43.75;;
28003;SDS011;15330;51.234;6.754;2023-02-11T15:13:02;105.10;;;50.65;;
28003;SDS011;15330;51.234;6.754;2023-02-11T15:15:29;84.70;;;38.95;;
28003;SDS011;15330;51.234;6.754;2023-02-11T15:17:57;79.90;;;37.03;;
28003;SDS011;15330;51.234;6.754;2023-02-11T15:20:26;88.65;;;37.13;;
28003;SDS011;15330;51.234;6.754;2023-02-11T15:23:04;82.07;;;36.60;;
28003;SDS011;15330;51.234;6.754;2023-02-11T15:25:33;88.00;;;37.97;;
28003;SDS011;15330;51.234;6.754;2023-02-11T15:30:40;91.10;;;37.70;;
28003;SDS011;15330;51.234;6.754;2023-02-11T15:33:18;91.80;;;39.75;;
28003;SDS011;15330;51.234;6.754;2023-02-11T15:35:46;93.00;;;40.30;;
28003;SDS011;15330;51.234;6.754;2023-02-11T15:38:11;95.93;;;42.13;;
28003;SDS011;15330;51.234;6.754;2023-02-11T15:40:37;102.00;;;39.97;;
28003;SDS011;15330;51.234;6.754;2023-02-11T15:43:04;98.95;;;40.70;;
28003;SDS011;15330;51.234;6.754;2023-02-11T15:45:56;88.93;;;39.63;;
28003;SDS011;15330;51.234;6.754;2023-02-11T15:48:23;81.60;;;38.78;;
28003;SDS011;15330;51.234;6.754;2023-02-11T15:50:56;90.40;;;40.47;;
28003;SDS011;15330;51.234;6.754;2023-02-11T15:56:21;113.40;;;45.00;;
28003;SDS011;15330;51.234;6.754;2023-02-11T15:58:57;91.68;;;40.10;;
28003;SDS011;15330;51.234;6.754;2023-02-11T16:01:34;107.57;;;43.00;;
28003;SDS011;15330;51.234;6.754;2023-02-11T16:04:01;94.63;;;42.50;;
28003;SDS011;15330;51.234;6.754;2023-02-11T16:06:36;97.53;;;40.28;;
28003;SDS011;15330;51.234;6.754;2023-02-11T16:09:29;92.30;;;38.50;;
28003;SDS011;15330;51.234;6.754;2023-02-11T16:14:46;94.40;;;41.88;;
28003;SDS011;15330;51.234;6.754;2023-02-11T16:17:12;98.45;;;42.15;;
28003;SDS011;15330;51.234;6.754;2023-02-11T16:19:49;100.55;;;42.10;;
28003;SDS011;15330;51.234;6.754;2023-02-11T16:22:16;100.90;;;44.53;;
28003;SDS011;15330;51.234;6.754;2023-02-11T16:24:47;103.18;;;44.38;;
28003;SDS011;15330;51.234;6.754;2023-02-11T16:27:21;94.13;;;42.08;;
28003;SDS011;15330;51.234;6.754;2023-02-11T16:29:54;93.72;;;40.78;;
28003;SDS011;15330;51.234;6.754;2023-02-11T16:32:25;95.88;;;42.00;;
28003;SDS011;15330;51.234;6.754;2023-02-11T16:34:53;98.00;;;44.15;;
28003;SDS011;15330;51.234;6.754;2023-02-11T16:37:21;89.13;;;40.58;;
28003;SDS011;15330;51.234;6.754;2023-02-11T16:39:47;105.85;;;43.20;;
28003;SDS011;15330;51.234;6.754;2023-02-11T16:42:13;101.65;;;43.08;;
28003;SDS011;15330;51.234;6.754;2023-02-11T16:44:38;107.20;;;45.53;;
28003;SDS011;15330;51.234;6.754;2023-02-11T16:47:05;102.90;;;45.58;;
28003;SDS011;15330;51.234;6.754;2023-02-11T16:49:41;102.10;;;45.13;;
28003;SDS011;15330;51.234;6.754;2023-02-11T16:52:08;105.18;;;46.70;;
28003;SDS011;15330;51.234;6.754;2023-02-11T16:54:37;108.45;;;45.70;;
28003;SDS011;15330;51.234;6.754;2023-02-11T16:57:24;106.50;;;45.33;;
28003;SDS011;15330;51.234;6.754;2023-02-11T16:59:50;110.53;;;46.20;;
28003;SDS011;15330;51.234;6.754;2023-02-11T17:04:50;101.22;;;44.63;;
28003;SDS011;15330;51.234;6.754;2023-02-11T17:07:17;114.03;;;47.20;;
28003;SDS011;15330;51.234;6.754;2023-02-11T17:09:42;116.88;;;48.25;;
28003;SDS011;15330;51.234;6.754;2023-02-11T17:12:07;100.53;;;44.95;;
28003;SDS011;15330;51.234;6.754;2023-02-11T17:14:33;104.75;;;44.70;;